sensor_id;sensor_type;location;lat;lon;timestamp;P1;durP1;ratioP1;P2;durP2;ratioP2
78365;SDS011;67641;59.864;30.464;2024-02-16T00:01:38;4.53;;;1.65;;
78365;SDS011;67641;59.864;30.464;2024-02-16T00:04:04;5.60;;;1.67;;
78365;SDS011;67641;59.864;30.464;2024-02-16T00:06:31;5.78;;;1.83;;
78365;SDS011;67641;59.864;30.464;2024-02-16T00:08:57;2.88;;;1.25;;
78365;SDS011;67641;59.864;30.464;2024-02-16T00:11:24;3.47;;;1.50;;
78365;SDS011;67641;59.864;30.464;2024-02-16T00:13:51;3.92;;;1.50;;
78365;SDS011;67641;59.864;30.464;2024-02-16T00:16:17;4.13;;;1.48;;
78365;SDS011;67641;59.864;30.464;2024-02-16T00:18:43;3.38;;;1.42;;
78365;SDS011;67641;59.864;30.464;2024-02-16T00:21:10;2.45;;;1.38;;
78365;SDS011;67641;59.864;30.464;2024-02-16T00:23:36;2.38;;;1.38;;
78365;SDS011;67641;59.864;30.464;2024-02-16T00:26:03;3.28;;;1.40;;
78365;SDS011;67641;59.864;30.464;2024-02-16T00:30:59;3.33;;;1.30;;
78365;SDS011;67641;59.864;30.464;2024-02-16T00:33:25;3.00;;;1.40;;
78365;SDS011;67641;59.864;30.464;2024-02-16T00:35:54;4.75;;;2.00;;
78365;SDS011;67641;59.864;30.464;2024-02-16T00:38:20;3.45;;;1.35;;
78365;SDS011;67641;59.864;30.464;2024-02-16T00:40:48;3.08;;;1.30;;
78365;SDS011;67641;59.864;30.464;2024-02-16T00:43:15;3.08;;;1.35;;
78365;SDS011;67641;59.864;30.464;2024-02-16T00:45:43;4.10;;;1.45;;
78365;SDS011;67641;59.864;30.464;2024-02-16T00:48:10;4.28;;;1.38;;
78365;SDS011;67641;59.864;30.464;2024-02-16T00:50:37;3.10;;;1.20;;
78365;SDS011;67641;59.864;30.464;2024-02-16T00:53:03;5.45;;;1.10;;
78365;SDS011;67641;59.864;30.464;2024-02-16T00:55:30;2.50;;;1.20;;
78365;SDS011;67641;59.864;30.464;2024-02-16T00:57:56;3.80;;;1.40;;
78365;SDS011;67641;59.864;30.464;2024-02-16T01:00:23;4.40;;;1.30;;
78365;SDS011;67641;59.864;30.464;2024-02-16T01:02:49;5.70;;;1.27;;
78365;SDS011;67641;59.864;30.464;2024-02-16T01:05:18;2.30;;;1.15;;
78365;SDS011;67641;59.864;30.464;2024-02-16T01:07:45;4.20;;;1.48;;
78365;SDS011;67641;59.864;30.464;2024-02-16T01:10:12;2.63;;;1.30;;
78365;SDS011;67641;59.864;30.464;2024-02-16T01:12:38;3.33;;;1.10;;
78365;SDS011;67641;59.864;30.464;2024-02-16T01:15:05;3.28;;;1.10;;
78365;SDS011;67641;59.864;30.464;2024-02-16T01:17:32;3.30;;;1.40;;
78365;SDS011;67641;59.864;30.464;2024-02-16T01:19:58;4.20;;;1.20;;
78365;SDS011;67641;59.864;30.464;2024-02-16T01:22:25;2.33;;;1.42;;
78365;SDS011;67641;59.864;30.464;2024-02-16T01:24:55;3.45;;;1.20;;
78365;SDS011;67641;59.864;30.464;2024-02-16T01:27:21;4.90;;;1.40;;
78365;SDS011;67641;59.864;30.464;2024-02-16T01:29:47;4.65;;;1.20;;
78365;SDS011;67641;59.864;30.464;2024-02-16T01:32:14;2.65;;;1.40;;
78365;SDS011;67641;59.864;30.464;2024-02-16T01:34:40;2.75;;;1.30;;
78365;SDS011;67641;59.864;30.464;2024-02-16T01:37:07;6.20;;;1.30;;
78365;SDS011;67641;59.864;30.464;2024-02-16T01:39:33;3.45;;;1.35;;
78365;SDS011;67641;59.864;30.464;2024-02-16T01:42:00;4.95;;;1.40;;
78365;SDS011;67641;59.864;30.464;2024-02-16T01:44:26;5.10;;;1.52;;
78365;SDS011;67641;59.864;30.464;2024-02-16T01:46:53;6.43;;;1.60;;
78365;SDS011;67641;59.864;30.464;2024-02-16T01:49:19;4.43;;;1.50;;
78365;SDS011;67641;59.864;30.464;2024-02-16T01:51:47;5.07;;;1.60;;
78365;SDS011;67641;59.864;30.464;2024-02-16T01:54:14;4.45;;;1.60;;
78365;SDS011;67641;59.864;30.464;2024-02-16T01:56:44;4.00;;;1.50;;
78365;SDS011;67641;59.864;30.464;2024-02-16T01:59:11;2.45;;;1.23;;
78365;SDS011;67641;59.864;30.464;2024-02-16T02:01:38;4.18;;;1.50;;
78365;SDS011;67641;59.864;30.464;2024-02-16T02:04:05;4.50;;;1.67;;
78365;SDS011;67641;59.864;30.464;2024-02-16T02:06:31;3.83;;;1.33;;
78365;SDS011;67641;59.864;30.464;2024-02-16T02:08:58;8.07;;;1.70;;
78365;SDS011;67641;59.864;30.464;2024-02-16T02:11:24;9.07;;;2.10;;
78365;SDS011;67641;59.864;30.464;2024-02-16T02:13:51;5.32;;;1.58;;
78365;SDS011;67641;59.864;30.464;2024-02-16T02:16:18;5.40;;;1.77;;
78365;SDS011;67641;59.864;30.464;2024-02-16T02:18:46;5.28;;;1.50;;
78365;SDS011;67641;59.864;30.464;2024-02-16T02:21:13;3.45;;;1.70;;
78365;SDS011;67641;59.864;30.464;2024-02-16T02:23:40;5.80;;;1.90;;
78365;SDS011;67641;59.864;30.464;2024-02-16T02:26:07;5.47;;;1.67;;
78365;SDS011;67641;59.864;30.464;2024-02-16T02:28:33;4.43;;;2.00;;
78365;SDS011;67641;59.864;30.464;2024-02-16T02:31:00;5.72;;;1.58;;
78365;SDS011;67641;59.864;30.464;2024-02-16T02:33:26;3.95;;;1.70;;
78365;SDS011;67641;59.864;30.464;2024-02-16T02:35:53;3.88;;;2.00;;
78365;SDS011;67641;59.864;30.464;2024-02-16T02:38:19;4.22;;;1.65;;
78365;SDS011;67641;59.864;30.464;2024-02-16T02:40:46;7.55;;;1.60;;
78365;SDS011;67641;59.864;30.464;2024-02-16T02:43:12;4.75;;;1.40;;
78365;SDS011;67641;59.864;30.464;2024-02-16T02:45:39;3.72;;;1.60;;
78365;SDS011;67641;59.864;30.464;2024-02-16T02:48:06;4.15;;;1.83;;
78365;SDS011;67641;59.864;30.464;2024-02-16T02:50:32;3.55;;;1.73;;
78365;SDS011;67641;59.864;30.464;2024-02-16T02:52:59;3.00;;;1.60;;
78365;SDS011;67641;59.864;30.464;2024-02-16T02:55:25;4.50;;;1.63;;
78365;SDS011;67641;59.864;30.464;2024-02-16T02:57:52;6.15;;;2.05;;
78365;SDS011;67641;59.864;30.464;2024-02-16T03:00:19;3.67;;;1.40;;
78365;SDS011;67641;59.864;30.464;2024-02-16T03:02:45;4.82;;;1.80;;
78365;SDS011;67641;59.864;30.464;2024-02-16T03:05:13;2.85;;;1.40;;
78365;SDS011;67641;59.864;30.464;2024-02-16T03:07:39;3.88;;;1.50;;
78365;SDS011;67641;59.864;30.464;2024-02-16T03:10:06;4.00;;;1.65;;
78365;SDS011;67641;59.864;30.464;2024-02-16T03:12:35;3.55;;;1.63;;
78365;SDS011;67641;59.864;30.464;2024-02-16T03:15:01;3.35;;;1.67;;
78365;SDS011;67641;59.864;30.464;2024-02-16T03:17:29;3.92;;;1.65;;
78365;SDS011;67641;59.864;30.464;2024-02-16T03:19:55;4.15;;;1.45;;
78365;SDS011;67641;59.864;30.464;2024-02-16T03:22:22;4.88;;;1.75;;
78365;SDS011;67641;59.864;30.464;2024-02-16T03:24:48;4.13;;;1.75;;
78365;SDS011;67641;59.864;30.464;2024-02-16T03:27:15;3.60;;;1.60;;
78365;SDS011;67641;59.864;30.464;2024-02-16T03:29:41;4.57;;;1.48;;
78365;SDS011;67641;59.864;30.464;2024-02-16T03:32:08;3.80;;;1.60;;
78365;SDS011;67641;59.864;30.464;2024-02-16T03:34:35;4.40;;;1.77;;
78365;SDS011;67641;59.864;30.464;2024-02-16T03:37:01;5.93;;;1.50;;
78365;SDS011;67641;59.864;30.464;2024-02-16T03:39:28;3.38;;;1.35;;
78365;SDS011;67641;59.864;30.464;2024-02-16T03:41:54;4.53;;;1.60;;
78365;SDS011;67641;59.864;30.464;2024-02-16T03:44:21;4.20;;;1.65;;
78365;SDS011;67641;59.864;30.464;2024-02-16T03:46:47;3.75;;;1.33;;
78365;SDS011;67641;59.864;30.464;2024-02-16T03:49:14;3.15;;;1.38;;
78365;SDS011;67641;59.864;30.464;2024-02-16T03:51:41;2.15;;;1.25;;
78365;SDS011;67641;59.864;30.464;2024-02-16T03:54:08;3.95;;;1.40;;
78365;SDS011;67641;59.864;30.464;2024-02-16T03:56:34;4.40;;;1.67;;
78365;SDS011;67641;59.864;30.464;2024-02-16T03:59:01;3.83;;;1.55;;
78365;SDS011;67641;59.864;30.464;2024-02-16T04:01:29;3.47;;;1.50;;
78365;SDS011;67641;59.864;30.464;2024-02-16T04:03:56;4.72;;;1.42;;
78365;SDS011;67641;59.864;30.464;2024-02-16T04:06:22;3.00;;;1.70;;
78365;SDS011;67641;59.864;30.464;2024-02-16T04:08:49;4.60;;;1.80;;
78365;SDS011;67641;59.864;30.464;2024-02-16T04:11:15;6.15;;;1.60;;
78365;SDS011;67641;59.864;30.464;2024-02-16T04:13:43;3.33;;;1.48;;
78365;SDS011;67641;59.864;30.464;2024-02-16T04:16:09;3.13;;;1.60;;
78365;SDS011;67641;59.864;30.464;2024-02-16T04:18:36;2.75;;;1.55;;
78365;SDS011;67641;59.864;30.464;2024-02-16T04:21:02;4.03;;;1.83;;
78365;SDS011;67641;59.864;30.464;2024-02-16T04:23:29;6.00;;;1.60;;
78365;SDS011;67641;59.864;30.464;2024-02-16T04:25:55;5.30;;;1.40;;
78365;SDS011;67641;59.864;30.464;2024-02-16T04:28:22;3.83;;;1.30;;
78365;SDS011;67641;59.864;30.464;2024-02-16T04:30:49;3.30;;;1.40;;
78365;SDS011;67641;59.864;30.464;2024-02-16T04:33:16;3.65;;;1.35;;
78365;SDS011;67641;59.864;30.464;2024-02-16T04:35:42;5.38;;;1.80;;
78365;SDS011;67641;59.864;30.464;2024-02-16T04:38:12;6.85;;;1.55;;
78365;SDS011;67641;59.864;30.464;2024-02-16T04:40:39;2.92;;;1.60;;
78365;SDS011;67641;59.864;30.464;2024-02-16T04:43:05;6.03;;;1.92;;
78365;SDS011;67641;59.864;30.464;2024-02-16T04:45:32;2.85;;;1.60;;
78365;SDS011;67641;59.864;30.464;2024-02-16T04:48:02;2.20;;;1.23;;
78365;SDS011;67641;59.864;30.464;2024-02-16T04:50:29;3.53;;;1.50;;
78365;SDS011;67641;59.864;30.464;2024-02-16T04:52:56;2.45;;;1.25;;
78365;SDS011;67641;59.864;30.464;2024-02-16T04:55:22;2.88;;;1.30;;
78365;SDS011;67641;59.864;30.464;2024-02-16T04:57:48;3.00;;;1.35;;
78365;SDS011;67641;59.864;30.464;2024-02-16T05:00:15;3.55;;;1.33;;
78365;SDS011;67641;59.864;30.464;2024-02-16T05:02:42;5.38;;;1.40;;
78365;SDS011;67641;59.864;30.464;2024-02-16T05:05:08;3.38;;;1.10;;
78365;SDS011;67641;59.864;30.464;2024-02-16T05:07:35;4.22;;;1.10;;
78365;SDS011;67641;59.864;30.464;2024-02-16T05:10:02;2.83;;;1.10;;
78365;SDS011;67641;59.864;30.464;2024-02-16T05:12:29;2.67;;;1.00;;
78365;SDS011;67641;59.864;30.464;2024-02-16T05:14:55;3.10;;;1.10;;
78365;SDS011;67641;59.864;30.464;2024-02-16T05:17:22;2.28;;;0.90;;
78365;SDS011;67641;59.864;30.464;2024-02-16T05:19:48;2.85;;;1.00;;
78365;SDS011;67641;59.864;30.464;2024-02-16T05:22:15;3.30;;;1.02;;
78365;SDS011;67641;59.864;30.464;2024-02-16T05:24:44;4.28;;;1.10;;
78365;SDS011;67641;59.864;30.464;2024-02-16T05:27:11;2.95;;;1.05;;
78365;SDS011;67641;59.864;30.464;2024-02-16T05:29:37;2.90;;;1.25;;
78365;SDS011;67641;59.864;30.464;2024-02-16T05:32:04;5.90;;;1.10;;
78365;SDS011;67641;59.864;30.464;2024-02-16T05:34:30;4.15;;;1.10;;
78365;SDS011;67641;59.864;30.464;2024-02-16T05:37:04;3.08;;;1.05;;
78365;SDS011;67641;59.864;30.464;2024-02-16T05:39:32;3.20;;;0.95;;
78365;SDS011;67641;59.864;30.464;2024-02-16T05:42:09;2.25;;;0.90;;
78365;SDS011;67641;59.864;30.464;2024-02-16T05:44:35;1.42;;;0.65;;
78365;SDS011;67641;59.864;30.464;2024-02-16T05:47:03;5.03;;;1.42;;
78365;SDS011;67641;59.864;30.464;2024-02-16T05:49:29;4.25;;;1.30;;
78365;SDS011;67641;59.864;30.464;2024-02-16T05:51:56;5.32;;;1.20;;
78365;SDS011;67641;59.864;30.464;2024-02-16T05:54:41;2.65;;;1.17;;
78365;SDS011;67641;59.864;30.464;2024-02-16T05:57:08;5.32;;;1.10;;
78365;SDS011;67641;59.864;30.464;2024-02-16T05:59:34;3.65;;;1.00;;
78365;SDS011;67641;59.864;30.464;2024-02-16T06:02:01;3.83;;;1.17;;
78365;SDS011;67641;59.864;30.464;2024-02-16T06:04:28;4.03;;;1.00;;
78365;SDS011;67641;59.864;30.464;2024-02-16T06:06:55;2.70;;;1.10;;
78365;SDS011;67641;59.864;30.464;2024-02-16T06:09:21;2.38;;;0.90;;
78365;SDS011;67641;59.864;30.464;2024-02-16T06:11:48;2.22;;;1.05;;
78365;SDS011;67641;59.864;30.464;2024-02-16T06:14:14;2.78;;;0.90;;
78365;SDS011;67641;59.864;30.464;2024-02-16T06:16:41;3.08;;;1.00;;
78365;SDS011;67641;59.864;30.464;2024-02-16T06:19:12;5.13;;;1.30;;
78365;SDS011;67641;59.864;30.464;2024-02-16T06:21:38;8.18;;;1.10;;
78365;SDS011;67641;59.864;30.464;2024-02-16T06:24:05;3.97;;;1.10;;
78365;SDS011;67641;59.864;30.464;2024-02-16T06:26:33;3.28;;;1.00;;
78365;SDS011;67641;59.864;30.464;2024-02-16T06:29:00;2.60;;;1.23;;
78365;SDS011;67641;59.864;30.464;2024-02-16T06:31:27;4.63;;;0.90;;
78365;SDS011;67641;59.864;30.464;2024-02-16T06:33:53;2.17;;;0.85;;
78365;SDS011;67641;59.864;30.464;2024-02-16T06:36:20;3.95;;;1.30;;
78365;SDS011;67641;59.864;30.464;2024-02-16T06:38:46;5.43;;;1.45;;
78365;SDS011;67641;59.864;30.464;2024-02-16T06:41:13;3.95;;;1.00;;
78365;SDS011;67641;59.864;30.464;2024-02-16T06:43:41;3.60;;;0.80;;
78365;SDS011;67641;59.864;30.464;2024-02-16T06:46:09;3.13;;;0.90;;
78365;SDS011;67641;59.864;30.464;2024-02-16T06:48:35;3.55;;;0.90;;
78365;SDS011;67641;59.864;30.464;2024-02-16T06:51:02;7.38;;;0.93;;
78365;SDS011;67641;59.864;30.464;2024-02-16T06:53:29;5.57;;;1.02;;
78365;SDS011;67641;59.864;30.464;2024-02-16T06:55:55;3.70;;;0.90;;
78365;SDS011;67641;59.864;30.464;2024-02-16T06:58:22;2.65;;;0.88;;
78365;SDS011;67641;59.864;30.464;2024-02-16T07:00:50;2.30;;;1.00;;
78365;SDS011;67641;59.864;30.464;2024-02-16T07:03:17;4.63;;;1.25;;
78365;SDS011;67641;59.864;30.464;2024-02-16T07:05:44;6.05;;;1.17;;
78365;SDS011;67641;59.864;30.464;2024-02-16T07:08:11;3.55;;;1.15;;
78365;SDS011;67641;59.864;30.464;2024-02-16T07:10:37;7.38;;;1.00;;
78365;SDS011;67641;59.864;30.464;2024-02-16T07:13:05;3.97;;;1.02;;
78365;SDS011;67641;59.864;30.464;2024-02-16T07:15:31;2.15;;;0.80;;
78365;SDS011;67641;59.864;30.464;2024-02-16T07:17:58;3.83;;;0.98;;
78365;SDS011;67641;59.864;30.464;2024-02-16T07:20:25;2.72;;;0.90;;
78365;SDS011;67641;59.864;30.464;2024-02-16T07:22:51;3.15;;;0.90;;
78365;SDS011;67641;59.864;30.464;2024-02-16T07:25:18;2.38;;;0.70;;
78365;SDS011;67641;59.864;30.464;2024-02-16T07:27:45;2.08;;;0.47;;
78365;SDS011;67641;59.864;30.464;2024-02-16T07:30:11;3.47;;;0.70;;
78365;SDS011;67641;59.864;30.464;2024-02-16T07:32:39;3.33;;;0.75;;
78365;SDS011;67641;59.864;30.464;2024-02-16T07:35:06;4.72;;;0.63;;
78365;SDS011;67641;59.864;30.464;2024-02-16T07:37:32;4.75;;;1.00;;
78365;SDS011;67641;59.864;30.464;2024-02-16T07:39:59;3.75;;;0.60;;
78365;SDS011;67641;59.864;30.464;2024-02-16T07:42:25;5.97;;;0.80;;
78365;SDS011;67641;59.864;30.464;2024-02-16T07:44:52;3.22;;;0.60;;
78365;SDS011;67641;59.864;30.464;2024-02-16T07:47:19;2.47;;;0.43;;
78365;SDS011;67641;59.864;30.464;2024-02-16T07:49:45;3.42;;;0.50;;
78365;SDS011;67641;59.864;30.464;2024-02-16T07:52:12;2.85;;;0.40;;
78365;SDS011;67641;59.864;30.464;2024-02-16T07:54:39;3.08;;;0.70;;
78365;SDS011;67641;59.864;30.464;2024-02-16T07:57:05;3.97;;;0.70;;
78365;SDS011;67641;59.864;30.464;2024-02-16T07:59:32;4.35;;;0.77;;
78365;SDS011;67641;59.864;30.464;2024-02-16T08:01:58;1.55;;;0.50;;
78365;SDS011;67641;59.864;30.464;2024-02-16T08:04:25;2.50;;;0.90;;
78365;SDS011;67641;59.864;30.464;2024-02-16T08:06:51;2.13;;;0.60;;
78365;SDS011;67641;59.864;30.464;2024-02-16T08:09:18;4.85;;;0.70;;
78365;SDS011;67641;59.864;30.464;2024-02-16T08:11:45;6.95;;;1.10;;
78365;SDS011;67641;59.864;30.464;2024-02-16T08:14:11;3.00;;;0.85;;
78365;SDS011;67641;59.864;30.464;2024-02-16T08:16:38;3.25;;;0.80;;
78365;SDS011;67641;59.864;30.464;2024-02-16T08:19:04;4.80;;;1.08;;
78365;SDS011;67641;59.864;30.464;2024-02-16T08:21:31;6.05;;;0.82;;
78365;SDS011;67641;59.864;30.464;2024-02-16T08:23:58;2.22;;;0.68;;
78365;SDS011;67641;59.864;30.464;2024-02-16T08:26:25;4.75;;;0.82;;
78365;SDS011;67641;59.864;30.464;2024-02-16T08:28:52;3.40;;;0.75;;
78365;SDS011;67641;59.864;30.464;2024-02-16T08:31:19;4.72;;;1.17;;
78365;SDS011;67641;59.864;30.464;2024-02-16T08:33:45;3.03;;;0.90;;
78365;SDS011;67641;59.864;30.464;2024-02-16T08:36:13;5.97;;;0.98;;
78365;SDS011;67641;59.864;30.464;2024-02-16T08:38:40;4.25;;;0.52;;
78365;SDS011;67641;59.864;30.464;2024-02-16T08:41:09;2.35;;;0.60;;
78365;SDS011;67641;59.864;30.464;2024-02-16T08:43:36;4.72;;;0.95;;
78365;SDS011;67641;59.864;30.464;2024-02-16T08:46:03;2.38;;;0.60;;
78365;SDS011;67641;59.864;30.464;2024-02-16T08:48:29;2.95;;;0.68;;
78365;SDS011;67641;59.864;30.464;2024-02-16T08:50:56;2.03;;;0.68;;
78365;SDS011;67641;59.864;30.464;2024-02-16T08:53:22;2.35;;;0.63;;
78365;SDS011;67641;59.864;30.464;2024-02-16T08:55:49;2.17;;;0.70;;
78365;SDS011;67641;59.864;30.464;2024-02-16T08:58:16;3.05;;;0.80;;
78365;SDS011;67641;59.864;30.464;2024-02-16T09:00:42;2.13;;;0.73;;
78365;SDS011;67641;59.864;30.464;2024-02-16T09:03:09;3.28;;;0.90;;
78365;SDS011;67641;59.864;30.464;2024-02-16T09:05:36;1.83;;;0.73;;
78365;SDS011;67641;59.864;30.464;2024-02-16T09:08:03;4.30;;;0.80;;
78365;SDS011;67641;59.864;30.464;2024-02-16T09:10:31;3.50;;;0.80;;
78365;SDS011;67641;59.864;30.464;2024-02-16T09:15:26;2.35;;;0.77;;
78365;SDS011;67641;59.864;30.464;2024-02-16T09:17:53;1.92;;;0.68;;
78365;SDS011;67641;59.864;30.464;2024-02-16T09:20:20;1.90;;;0.70;;
78365;SDS011;67641;59.864;30.464;2024-02-16T09:22:48;2.97;;;0.85;;
78365;SDS011;67641;59.864;30.464;2024-02-16T09:25:14;2.00;;;0.90;;
78365;SDS011;67641;59.864;30.464;2024-02-16T09:27:41;2.50;;;0.75;;
78365;SDS011;67641;59.864;30.464;2024-02-16T09:30:13;3.00;;;0.80;;
78365;SDS011;67641;59.864;30.464;2024-02-16T09:32:40;2.95;;;0.80;;
78365;SDS011;67641;59.864;30.464;2024-02-16T09:35:09;7.55;;;0.80;;
78365;SDS011;67641;59.864;30.464;2024-02-16T09:37:38;3.08;;;0.90;;
78365;SDS011;67641;59.864;30.464;2024-02-16T09:40:05;2.75;;;0.68;;
78365;SDS011;67641;59.864;30.464;2024-02-16T09:42:35;4.30;;;0.85;;
78365;SDS011;67641;59.864;30.464;2024-02-16T09:45:08;3.03;;;0.80;;
78365;SDS011;67641;59.864;30.464;2024-02-16T09:47:38;3.42;;;0.98;;
78365;SDS011;67641;59.864;30.464;2024-02-16T09:50:05;5.38;;;1.48;;
78365;SDS011;67641;59.864;30.464;2024-02-16T09:52:32;5.55;;;0.60;;
78365;SDS011;67641;59.864;30.464;2024-02-16T09:54:59;5.95;;;0.88;;
78365;SDS011;67641;59.864;30.464;2024-02-16T09:57:26;3.00;;;0.70;;
78365;SDS011;67641;59.864;30.464;2024-02-16T09:59:52;2.97;;;0.60;;
78365;SDS011;67641;59.864;30.464;2024-02-16T10:02:19;2.72;;;0.80;;
78365;SDS011;67641;59.864;30.464;2024-02-16T10:04:46;3.42;;;0.68;;
78365;SDS011;67641;59.864;30.464;2024-02-16T10:07:12;3.75;;;0.80;;
78365;SDS011;67641;59.864;30.464;2024-02-16T10:09:39;1.63;;;0.50;;
78365;SDS011;67641;59.864;30.464;2024-02-16T10:12:06;2.65;;;0.70;;
78365;SDS011;67641;59.864;30.464;2024-02-16T10:14:33;3.75;;;0.60;;
78365;SDS011;67641;59.864;30.464;2024-02-16T10:17:03;4.95;;;0.57;;
78365;SDS011;67641;59.864;30.464;2024-02-16T10:19:32;3.60;;;0.60;;
78365;SDS011;67641;59.864;30.464;2024-02-16T10:22:12;3.10;;;0.57;;
78365;SDS011;67641;59.864;30.464;2024-02-16T10:24:39;2.20;;;0.57;;
78365;SDS011;67641;59.864;30.464;2024-02-16T10:27:17;3.92;;;0.63;;
78365;SDS011;67641;59.864;30.464;2024-02-16T10:29:44;4.10;;;0.70;;
78365;SDS011;67641;59.864;30.464;2024-02-16T10:32:12;4.82;;;0.63;;
78365;SDS011;67641;59.864;30.464;2024-02-16T10:34:39;2.05;;;0.50;;
78365;SDS011;67641;59.864;30.464;2024-02-16T10:37:06;3.25;;;0.52;;
78365;SDS011;67641;59.864;30.464;2024-02-16T10:39:35;2.95;;;0.70;;
78365;SDS011;67641;59.864;30.464;2024-02-16T10:42:04;3.70;;;0.60;;
78365;SDS011;67641;59.864;30.464;2024-02-16T10:44:32;2.28;;;0.40;;
78365;SDS011;67641;59.864;30.464;2024-02-16T10:47:01;1.90;;;0.55;;
78365;SDS011;67641;59.864;30.464;2024-02-16T10:49:28;1.77;;;0.55;;
78365;SDS011;67641;59.864;30.464;2024-02-16T10:51:55;3.38;;;0.50;;
78365;SDS011;67641;59.864;30.464;2024-02-16T10:54:25;3.65;;;0.70;;
78365;SDS011;67641;59.864;30.464;2024-02-16T10:56:55;2.95;;;0.60;;
78365;SDS011;67641;59.864;30.464;2024-02-16T10:59:21;2.05;;;0.60;;
78365;SDS011;67641;59.864;30.464;2024-02-16T11:01:48;5.05;;;0.70;;
78365;SDS011;67641;59.864;30.464;2024-02-16T11:04:35;3.90;;;0.70;;
78365;SDS011;67641;59.864;30.464;2024-02-16T11:07:38;5.22;;;0.70;;
78365;SDS011;67641;59.864;30.464;2024-02-16T11:09:59;3.90;;;0.60;;
78365;SDS011;67641;59.864;30.464;2024-02-16T11:12:26;3.45;;;0.90;;
78365;SDS011;67641;59.864;30.464;2024-02-16T11:15:01;6.45;;;0.85;;
78365;SDS011;67641;59.864;30.464;2024-02-16T11:17:27;2.05;;;0.85;;
78365;SDS011;67641;59.864;30.464;2024-02-16T11:19:54;3.55;;;1.00;;
78365;SDS011;67641;59.864;30.464;2024-02-16T11:22:21;8.82;;;1.20;;
78365;SDS011;67641;59.864;30.464;2024-02-16T11:24:53;20.80;;;1.70;;
78365;SDS011;67641;59.864;30.464;2024-02-16T11:27:20;4.78;;;1.45;;
78365;SDS011;67641;59.864;30.464;2024-02-16T11:29:49;6.30;;;1.40;;
78365;SDS011;67641;59.864;30.464;2024-02-16T11:32:17;5.10;;;1.40;;
78365;SDS011;67641;59.864;30.464;2024-02-16T11:34:44;8.35;;;1.90;;
78365;SDS011;67641;59.864;30.464;2024-02-16T11:37:12;4.70;;;1.70;;
78365;SDS011;67641;59.864;30.464;2024-02-16T11:39:40;4.95;;;1.95;;
78365;SDS011;67641;59.864;30.464;2024-02-16T11:42:11;3.95;;;1.83;;
78365;SDS011;67641;59.864;30.464;2024-02-16T11:44:39;4.10;;;1.67;;
78365;SDS011;67641;59.864;30.464;2024-02-16T11:47:18;6.63;;;1.52;;
78365;SDS011;67641;59.864;30.464;2024-02-16T11:52:28;9.63;;;1.60;;
78365;SDS011;67641;59.864;30.464;2024-02-16T11:54:55;6.50;;;1.60;;
78365;SDS011;67641;59.864;30.464;2024-02-16T11:57:21;2.55;;;1.48;;
78365;SDS011;67641;59.864;30.464;2024-02-16T11:59:49;3.33;;;1.67;;
78365;SDS011;67641;59.864;30.464;2024-02-16T12:02:19;3.42;;;1.30;;
78365;SDS011;67641;59.864;30.464;2024-02-16T12:04:47;3.10;;;1.15;;
78365;SDS011;67641;59.864;30.464;2024-02-16T12:07:13;3.45;;;0.98;;
78365;SDS011;67641;59.864;30.464;2024-02-16T12:09:40;3.20;;;0.90;;
78365;SDS011;67641;59.864;30.464;2024-02-16T12:12:06;3.85;;;0.88;;
78365;SDS011;67641;59.864;30.464;2024-02-16T12:14:34;5.53;;;1.10;;
78365;SDS011;67641;59.864;30.464;2024-02-16T12:17:01;9.32;;;3.13;;
78365;SDS011;67641;59.864;30.464;2024-02-16T12:19:27;6.18;;;1.90;;
78365;SDS011;67641;59.864;30.464;2024-02-16T12:21:55;4.95;;;1.30;;
78365;SDS011;67641;59.864;30.464;2024-02-16T12:24:24;3.65;;;1.30;;
78365;SDS011;67641;59.864;30.464;2024-02-16T12:26:51;3.40;;;1.20;;
78365;SDS011;67641;59.864;30.464;2024-02-16T12:29:18;4.07;;;1.25;;
78365;SDS011;67641;59.864;30.464;2024-02-16T12:31:45;2.65;;;0.90;;
78365;SDS011;67641;59.864;30.464;2024-02-16T12:34:15;6.25;;;2.55;;
78365;SDS011;67641;59.864;30.464;2024-02-16T12:36:41;8.27;;;3.38;;
78365;SDS011;67641;59.864;30.464;2024-02-16T12:39:08;9.15;;;2.55;;
78365;SDS011;67641;59.864;30.464;2024-02-16T12:41:38;8.30;;;2.55;;
78365;SDS011;67641;59.864;30.464;2024-02-16T12:44:07;5.10;;;1.70;;
78365;SDS011;67641;59.864;30.464;2024-02-16T12:46:34;5.85;;;2.60;;
78365;SDS011;67641;59.864;30.464;2024-02-16T12:49:01;9.07;;;3.53;;
78365;SDS011;67641;59.864;30.464;2024-02-16T12:51:27;6.45;;;2.50;;
78365;SDS011;67641;59.864;30.464;2024-02-16T12:53:54;6.30;;;2.40;;
78365;SDS011;67641;59.864;30.464;2024-02-16T12:56:21;4.93;;;2.13;;
78365;SDS011;67641;59.864;30.464;2024-02-16T12:58:47;4.07;;;1.10;;
78365;SDS011;67641;59.864;30.464;2024-02-16T13:01:14;2.85;;;1.33;;
78365;SDS011;67641;59.864;30.464;2024-02-16T13:03:44;6.00;;;2.00;;
78365;SDS011;67641;59.864;30.464;2024-02-16T13:06:10;4.93;;;1.95;;
78365;SDS011;67641;59.864;30.464;2024-02-16T13:08:37;14.85;;;4.90;;
78365;SDS011;67641;59.864;30.464;2024-02-16T13:11:04;9.40;;;3.80;;
78365;SDS011;67641;59.864;30.464;2024-02-16T13:13:30;3.67;;;1.80;;
78365;SDS011;67641;59.864;30.464;2024-02-16T13:15:57;4.25;;;1.38;;
78365;SDS011;67641;59.864;30.464;2024-02-16T13:18:25;3.33;;;1.25;;
78365;SDS011;67641;59.864;30.464;2024-02-16T13:20:51;4.50;;;1.70;;
78365;SDS011;67641;59.864;30.464;2024-02-16T13:23:18;5.40;;;2.20;;
78365;SDS011;67641;59.864;30.464;2024-02-16T13:25:44;5.55;;;2.70;;
78365;SDS011;67641;59.864;30.464;2024-02-16T13:28:11;7.70;;;3.50;;
78365;SDS011;67641;59.864;30.464;2024-02-16T13:30:37;5.97;;;2.10;;
78365;SDS011;67641;59.864;30.464;2024-02-16T13:33:04;6.10;;;2.90;;
78365;SDS011;67641;59.864;30.464;2024-02-16T13:35:31;9.13;;;3.72;;
78365;SDS011;67641;59.864;30.464;2024-02-16T13:37:57;6.70;;;2.92;;
78365;SDS011;67641;59.864;30.464;2024-02-16T13:40:24;5.15;;;2.33;;
78365;SDS011;67641;59.864;30.464;2024-02-16T13:42:51;5.88;;;2.28;;
78365;SDS011;67641;59.864;30.464;2024-02-16T13:45:17;8.13;;;2.53;;
78365;SDS011;67641;59.864;30.464;2024-02-16T13:47:44;6.45;;;2.88;;
78365;SDS011;67641;59.864;30.464;2024-02-16T13:50:10;10.02;;;3.60;;
78365;SDS011;67641;59.864;30.464;2024-02-16T13:52:37;12.25;;;5.18;;
78365;SDS011;67641;59.864;30.464;2024-02-16T13:55:03;11.27;;;4.88;;
78365;SDS011;67641;59.864;30.464;2024-02-16T13:57:32;13.93;;;6.22;;
78365;SDS011;67641;59.864;30.464;2024-02-16T13:59:58;15.63;;;7.10;;
78365;SDS011;67641;59.864;30.464;2024-02-16T14:02:25;11.43;;;5.15;;
78365;SDS011;67641;59.864;30.464;2024-02-16T14:04:52;9.02;;;4.38;;
78365;SDS011;67641;59.864;30.464;2024-02-16T14:07:18;8.93;;;3.78;;
78365;SDS011;67641;59.864;30.464;2024-02-16T14:09:45;5.32;;;3.15;;
78365;SDS011;67641;59.864;30.464;2024-02-16T14:12:11;7.03;;;2.22;;
78365;SDS011;67641;59.864;30.464;2024-02-16T14:14:38;3.28;;;1.88;;
78365;SDS011;67641;59.864;30.464;2024-02-16T14:17:04;4.05;;;1.88;;
78365;SDS011;67641;59.864;30.464;2024-02-16T14:19:31;4.65;;;1.65;;
78365;SDS011;67641;59.864;30.464;2024-02-16T14:21:59;4.55;;;2.00;;
78365;SDS011;67641;59.864;30.464;2024-02-16T14:24:26;4.55;;;2.20;;
78365;SDS011;67641;59.864;30.464;2024-02-16T14:26:52;5.03;;;2.28;;
78365;SDS011;67641;59.864;30.464;2024-02-16T14:29:19;4.10;;;1.67;;
78365;SDS011;67641;59.864;30.464;2024-02-16T14:31:45;7.10;;;2.90;;
78365;SDS011;67641;59.864;30.464;2024-02-16T14:34:12;3.95;;;1.88;;
78365;SDS011;67641;59.864;30.464;2024-02-16T14:36:38;3.78;;;1.75;;
78365;SDS011;67641;59.864;30.464;2024-02-16T14:39:05;5.75;;;2.17;;
78365;SDS011;67641;59.864;30.464;2024-02-16T14:41:32;5.68;;;2.67;;